Arborg, Canada
Current Conditions -  °F | °C
As of 7:00 AM on Saturday 25 Oct 2014 (Local Time) from CYWG Reporting Station
Clear Clear  
Wind Chill: 29°   Ceiling: Unl
Heat Index: 37°   Visibility: 15mi
Dew Point: 30°   Wind: 14mph
Humidity: 75%   Direction: 260°W
Pressure: 29.93"   Gusts: NA
Location:  50.91°N, 97.22°W
Report Text: CYWG 251200Z 26012KT 15SM SKC 03/M01 A2993 RMK SLP143
Loading
Personal Weather Stations






























Interactive Weather Map
Tropical Storm Tracking
New forecast layout! Learn more

10-Day Weather Forecast

Advertisements
Track Severe Weather on mobile